Private Wetterstation Nrnberg - Katzwang
Wetterdaten: Dezember 2013
Datum Temp. A. Feuchte A. Luftdruck Regen Wind Richtung Taupunkt Windchill Windben
01.12.2013 3,6 C 82 % 1025 hPa 0,0 l/m 0,1 km/h N 0,8 C 3,6 C 1,1 km/h
02.12.2013 3,2 C 80 % 1029 hPa 0,0 l/m 3,3 km/h O 0,0 C 2,2 C 4,6 km/h
03.12.2013 -0,9 C 80 % 1026 hPa 0,0 l/m 1,3 km/h O -3,9 C -1,1 C 2,3 km/h
04.12.2013 1,1 C 83 % 1023 hPa 0,5 l/m 2,0 km/h W-NW -1,5 C 0,7 C 3,0 km/h
05.12.2013 3,6 C 82 % 1019 hPa 1,0 l/m 6,0 km/h W-NW 0,7 C 1,7 C 9,9 km/h
06.12.2013 1,4 C 80 % 1014 hPa 3,1 l/m 11,2 km/h W-NW -1,7 C -2,6 C 18,4 km/h
07.12.2013 1,6 C 81 % 1022 hPa 2,1 l/m 6,5 km/h W-NW -1,3 C -0,3 C 9,1 km/h
08.12.2013 4,7 C 82 % 1024 hPa 0,0 l/m 3,9 km/h W-NW 1,9 C 3,9 C 5,2 km/h
09.12.2013 5,8 C 79 % 1026 hPa 1,0 l/m 4,0 km/h W-NW 2,4 C 5,0 C 5,0 km/h
10.12.2013 6,0 C 82 % 1032 hPa 0,0 l/m 2,2 km/h N-NO 3,1 C 5,7 C 3,2 km/h
11.12.2013 4,7 C 84 % 1031 hPa 0,0 l/m 5,7 km/h NO 2,2 C 3,4 C 6,7 km/h
12.12.2013 2,7 C 84 % 1028 hPa 0,0 l/m 5,4 km/h NO 0,3 C 1,5 C 6,4 km/h
13.12.2013 1,0 C 83 % 1024 hPa 0,0 l/m 2,9 km/h N-NO -1,5 C 0,5 C 3,9 km/h
14.12.2013 1,5 C 84 % 1025 hPa 2,6 l/m 3,7 km/h N-NO -0,9 C 0,6 C 4,8 km/h
15.12.2013 1,4 C 84 % 1029 hPa 0,0 l/m 3,6 km/h NO -1,0 C 0,8 C 4,6 km/h
16.12.2013 0,5 C 82 % 1028 hPa 0,0 l/m 2,7 km/h NO -2,2 C 0,1 C 3,7 km/h
17.12.2013 0,6 C 81 % 1025 hPa 0,5 l/m 1,9 km/h NO -2,3 C 0,3 C 2,9 km/h
18.12.2013 -0,4 C 83 % 1020 hPa 0,0 l/m 4,5 km/h O-NO -3,0 C -1,3 C 5,5 km/h
19.12.2013 1,0 C 83 % 1011 hPa 0,5 l/m 6,9 km/h NO -1,6 C -1,0 C 8,1 km/h
20.12.2013 2,4 C 84 % 1021 hPa 0,5 l/m 0,5 km/h W-NW -0,1 C 2,4 C 1,5 km/h
21.12.2013 0,5 C 85 % 1028 hPa 0,0 l/m 6,0 km/h N-NO -1,8 C -1,2 C 7,2 km/h
22.12.2013 5,0 C 83 % 1020 hPa 0,5 l/m 8,1 km/h N-NO 2,3 C 2,7 C 9,6 km/h
23.12.2013 6,7 C 82 % 1016 hPa 0,5 l/m 4,1 km/h N-NO 3,8 C 5,8 C 5,3 km/h
24.12.2013 5,0 C 78 % 1003 hPa 0,0 l/m 8,1 km/h NO 1,5 C 2,9 C 9,2 km/h
25.12.2013 6,9 C 76 % 993 hPa 1,0 l/m 3,5 km/h NO 3,0 C 6,2 C 4,5 km/h
26.12.2013 5,4 C 84 % 993 hPa 3,1 l/m 1,2 km/h W-NW 2,9 C 5,2 C 2,2 km/h
27.12.2013 4,5 C 81 % 1006 hPa 0,0 l/m 7,2 km/h N-NO 1,5 C 2,5 C 8,9 km/h
28.12.2013 4,9 C 79 % 1003 hPa 0,0 l/m 6,3 km/h N-NO 1,6 C 3,1 C 7,6 km/h
29.12.2013 4,8 C 80 % 1015 hPa 0,5 l/m 3,7 km/h W-NW 1,5 C 4,3 C 4,7 km/h
30.12.2013 3,1 C 81 % 1024 hPa 0,0 l/m 2,8 km/h NO 0,1 C 2,5 C 3,8 km/h
31.12.2013 -0,3 C 83 % 1018 hPa 0,0 l/m 6,0 km/h O-NO -2,8 C -2,1 C 7,2 km/h
Min-Datum 03.12.13 03.12.13 26.12.13 14 Tage 01.12.13 - 03.12.13 19.12.13 01.12.13
Min-Zeit 07:40 14:00 05:00 - 00:00 - 07:40 04:30 00:00
Minimum -4,6 C 66 % 989 hPa - 0,0 km/h - -6,9 C -12,6 C 1,0 km/h
Max-Datum 23.12.13 21.12.13 10.12.13 06.12.13 06.12.13 - 23.12.13 23.12.13 06.12.13
Max-Zeit 12:20 05:40 11:10 00:40 13:40 - 12:20 12:20 00:10
Maximum 9,5 C 86 % 1033 hPa 3,1 l/m 44,5 km/h
W-NW
- 6,2 C 9,5 C 73,5 km/h
W-NW
Durchschnitt 3,0 C 82 % 1019 hPa #17,6 l/m 4,4 km/h NO 0,1 C 1,9 C 5,8 km/h

Durchschnitt Minimum Temp.0,6 C
Durchschnitt Maximum Temp.5,8 C